createdAt,value
2016-11-01T00:00:48.444Z,69.66
2016-11-01T00:01:48.440Z,69.95
2016-11-01T00:02:48.347Z,69.09
2016-11-01T00:03:48.325Z,70.01
2016-11-01T00:04:48.291Z,70.1
2016-11-01T00:05:49.062Z,70.2
2016-11-01T00:06:48.304Z,70.39
2016-11-01T00:07:48.218Z,70.39
2016-11-01T00:08:48.168Z,70.01
2016-11-01T00:09:48.149Z,69.72
2016-11-01T00:10:48.128Z,69.82
2016-11-01T00:11:48.146Z,69.62
2016-11-01T00:12:48.057Z,70.2
2016-11-01T00:14:03.045Z,70.01
2016-11-01T00:14:47.988Z,70.87
2016-11-01T00:15:47.967Z,70.29
2016-11-01T00:16:48.188Z,69.91
2016-11-01T00:17:47.954Z,69.91
2016-11-01T00:18:47.930Z,69.34
2016-11-01T00:19:47.851Z,69.53
2016-11-01T00:21:47.795Z,70.01
2016-11-01T00:22:48.134Z,69.34
2016-11-01T00:23:47.778Z,68.96
2016-11-01T00:24:47.691Z,69.53
2016-11-01T00:25:47.678Z,69.34
2016-11-01T00:26:47.643Z,70.01
2016-11-01T00:27:47.645Z,69.53
2016-11-01T00:28:47.578Z,70.1
2016-11-01T00:29:47.573Z,70.48
2016-11-01T00:30:47.523Z,70.01
2016-11-01T00:31:47.548Z,70.77
2016-11-01T00:32:47.480Z,70.87
2016-11-01T00:33:47.429Z,71.15
2016-11-01T00:34:47.401Z,70.01
2016-11-01T00:36:47.377Z,70.2
2016-11-01T00:37:47.316Z,70.58
2016-11-01T00:38:47.322Z,70.58
2016-11-01T00:39:47.258Z,71.25
2016-11-01T00:40:47.317Z,69.91
2016-11-01T00:41:47.232Z,69.91
2016-11-01T00:42:47.161Z,70.1
2016-11-01T00:43:47.139Z,70.29
2016-11-01T00:44:47.105Z,70.48
2016-11-01T00:45:47.149Z,69.91
2016-11-01T00:47:47.020Z,69.62
2016-11-01T00:49:01.664Z,70.01
2016-11-01T00:49:47.387Z,70.01
2016-11-01T00:51:01.658Z,70.58
2016-11-01T00:51:46.908Z,70.39
2016-11-01T00:52:46.865Z,69.82
2016-11-01T00:53:46.836Z,70.29
2016-11-01T00:54:46.829Z,70.58
2016-11-01T00:55:47.703Z,70.83
2016-11-01T00:56:47.133Z,71.31
2016-11-01T00:57:46.733Z,71.63
2016-11-01T00:58:46.733Z,71.34
2016-11-01T00:59:46.663Z,71.12
2016-11-01T01:00:47.465Z,71.06
2016-11-01T01:01:46.658Z,70.48
2016-11-01T01:02:46.587Z,70.39
2016-11-01T01:03:46.582Z,70.1
2016-11-01T01:04:46.512Z,70.1
2016-11-01T01:05:46.493Z,69.91
2016-11-01T01:06:46.482Z,70.1
2016-11-01T01:07:47.139Z,70.2
2016-11-01T01:08:46.563Z,69.91
2016-11-01T01:09:46.419Z,69.34
2016-11-01T01:10:46.327Z,69.05
2016-11-01T01:11:46.331Z,69.82
2016-11-01T01:12:46.296Z,69.91
2016-11-01T01:13:46.247Z,70.77
2016-11-01T01:14:46.263Z,70.58
2016-11-01T01:16:00.861Z,70.1
2016-11-01T01:16:46.164Z,69.87
2016-11-01T01:17:46.176Z,70.16
2016-11-01T01:18:46.130Z,70.29
2016-11-01T01:19:46.075Z,70.07
2016-11-01T01:20:46.048Z,70.16
2016-11-01T01:22:00.690Z,69.97
2016-11-01T01:22:46.072Z,69.97
2016-11-01T01:23:45.953Z,70.26
2016-11-01T01:24:45.922Z,70.36
2016-11-01T01:25:45.884Z,70.07
2016-11-01T01:26:45.873Z,70.07
2016-11-01T01:27:45.877Z,69.78
2016-11-01T01:28:45.832Z,70.07
2016-11-01T01:29:45.803Z,70.16
2016-11-01T01:30:46.478Z,70.07
2016-11-01T01:31:45.756Z,69.87
2016-11-01T01:33:45.652Z,69.78
2016-11-01T01:34:45.620Z,69.87
2016-11-01T01:35:45.655Z,69.59
2016-11-01T01:36:45.572Z,69.68
2016-11-01T01:37:45.543Z,69.97
2016-11-01T01:38:45.552Z,70.45
2016-11-01T01:40:45.488Z,69.87
2016-11-01T01:41:45.455Z,70.92
2016-11-01T01:42:45.411Z,70.92
2016-11-01T01:43:45.360Z,71.31
2016-11-01T01:44:45.324Z,70.92
2016-11-01T01:45:45.315Z,69.59
2016-11-01T01:46:45.272Z,69.87
2016-11-01T01:47:45.286Z,69.97
2016-11-01T01:48:45.199Z,69.59
2016-11-01T01:49:45.186Z,69.11
2016-11-01T01:50:45.151Z,69.59
2016-11-01T01:51:45.179Z,69.97
2016-11-01T01:52:45.095Z,70.26
2016-11-01T01:53:45.071Z,69.87
2016-11-01T01:54:45.024Z,69.97
2016-11-01T01:55:45.915Z,70.16
2016-11-01T01:56:44.964Z,70.83
2016-11-01T01:57:44.940Z,70.92
2016-11-01T01:58:44.909Z,71.12
2016-11-01T01:59:44.899Z,70.92
2016-11-01T02:00:44.913Z,70.92
2016-11-01T02:01:44.833Z,70.83
2016-11-01T02:02:47.304Z,71.02
2016-11-01T02:03:44.859Z,70.54
2016-11-01T02:05:44.726Z,70.92
2016-11-01T02:06:44.662Z,71.41
2016-11-01T02:07:44.639Z,70.45
2016-11-01T02:08:44.603Z,70.92
2016-11-01T02:09:44.583Z,70.83
2016-11-01T02:10:44.569Z,70.96
2016-11-01T02:11:44.526Z,71.69
2016-11-01T02:12:44.542Z,71.41
2016-11-01T02:13:44.553Z,71.5
2016-11-01T02:14:44.530Z,70.96
2016-11-01T02:15:44.445Z,71.59
2016-11-01T02:16:45.216Z,71.59
2016-11-01T02:17:44.467Z,71.12
2016-11-01T02:18:44.833Z,70.45
2016-11-01T02:19:44.299Z,71.02
2016-11-01T02:20:44.398Z,70.92
2016-11-01T02:21:44.272Z,70.92
2016-11-01T02:22:44.193Z,70.83
2016-11-01T02:23:44.180Z,70.64
2016-11-01T02:24:44.127Z,70.77
2016-11-01T02:25:59.165Z,70.54
2016-11-01T02:26:44.071Z,70.73
2016-11-01T02:27:44.116Z,71.59
2016-11-01T02:28:44.022Z,71.31
2016-11-01T02:29:58.665Z,71.5
2016-11-01T02:30:44.009Z,71.21
2016-11-01T02:31:43.940Z,70.83
2016-11-01T02:32:43.905Z,70.64
2016-11-01T02:33:43.892Z,70.07
2016-11-01T02:34:43.855Z,70.45
2016-11-01T02:35:43.858Z,71.02
2016-11-01T02:36:44.622Z,71.41
2016-11-01T02:38:43.707Z,70.64
